Time;durP1;ratioP1;P1;durP2;ratioP2;P2;SDS_P1;SDS_P2;PMS_P1;PMS_P2;Temp;Humidity;BMP_temperature;BMP_pressure;BME280_temperature;BME280_humidity;BME280_pressure;Samples;Min_cycle;Max_cycle;Signal;HPM_P1;HPM_P2
2023/09/05 00:01:12;;;;;;;5.73;2.80;;;;;;;18.35;59.89;150661.53;4999924;28;20230;-58
2023/09/05 00:03:40;;;;;;;3.27;2.60;;;;;;;18.33;61.54;150655.31;4995443;28;20222;-57
2023/09/05 00:06:10;;;;;;;5.00;3.00;;;;;;;18.38;60.93;150669.06;4999923;28;20289;-56
2023/09/05 00:08:38;;;;;;;2.83;2.20;;;;;;;18.38;61.03;150669.06;4996292;28;20230;-57
2023/09/05 00:11:05;;;;;;;5.80;2.87;;;;;;;18.17;62.52;150616.50;4998688;28;20240;-57
2023/09/05 00:13:32;;;;;;;3.53;2.90;;;;;;;18.12;63.73;150606.47;4996310;28;20227;-58
2023/09/05 00:15:59;;;;;;;4.17;2.47;;;;;;;17.96;62.40;150567.66;4994374;28;20257;-57
2023/09/05 00:18:26;;;;;;;4.50;2.70;;;;;;;18.21;60.20;150626.50;4998400;28;20241;-57
2023/09/05 00:20:54;;;;;;;4.80;2.47;;;;;;;18.02;61.86;150580.22;4996439;28;20242;-55
2023/09/05 00:23:21;;;;;;;4.33;2.40;;;;;;;18.05;62.35;150588.97;4997658;28;20258;-57
2023/09/05 00:25:48;;;;;;;4.67;2.47;;;;;;;18.08;60.94;150596.47;4995443;28;20227;-57
2023/09/05 00:28:14;;;;;;;2.47;2.20;;;;;;;18.00;60.78;150577.72;5000077;28;20247;-57
2023/09/05 00:30:41;;;;;;;3.23;2.37;;;;;;;18.32;59.78;150654.03;4994722;28;20227;-58
2023/09/05 00:33:09;;;;;;;4.97;2.30;;;;;;;18.41;62.62;150676.56;4992684;28;20278;-57
2023/09/05 00:35:35;;;;;;;3.93;2.23;;;;;;;18.19;60.41;150622.78;5000364;28;20238;-57
2023/09/05 00:38:03;;;;;;;3.63;2.37;;;;;;;18.11;60.52;150603.97;4976874;28;21243;-57
2023/09/05 00:40:30;;;;;;;3.97;2.13;;;;;;;18.10;60.52;150601.47;4973503;28;20238;-56
2023/09/05 00:42:58;;;;;;;3.80;2.40;;;;;;;17.93;62.93;150560.16;4995753;28;20247;-56
2023/09/05 00:45:25;;;;;;;3.43;2.53;;;;;;;17.84;63.00;150537.63;4982451;28;20225;-57
2023/09/05 00:47:54;;;;;;;4.23;2.20;;;;;;;17.80;64.45;150527.63;4970347;28;20323;-57
2023/09/05 00:50:22;;;;;;;3.23;2.50;;;;;;;17.73;63.62;150511.38;4981591;28;20234;-58
2023/09/05 00:52:50;;;;;;;2.87;2.30;;;;;;;17.62;64.28;150483.84;4973726;28;20223;-57
2023/09/05 00:55:17;;;;;;;2.70;2.20;;;;;;;17.78;63.15;150523.91;4979976;28;20805;-58
2023/09/05 00:57:44;;;;;;;3.50;2.40;;;;;;;17.62;64.82;150485.09;4997099;28;21596;-56
2023/09/05 01:00:13;;;;;;;3.97;2.53;;;;;;;17.57;66.14;150472.56;4974509;28;20760;-57
2023/09/05 01:02:41;;;;;;;4.67;2.00;;;;;;;17.50;65.70;150455.06;4994427;28;20298;-57
2023/09/05 01:05:08;;;;;;;3.17;2.20;;;;;;;17.38;67.06;150426.31;4998275;28;20311;-58
2023/09/05 01:07:59;;;;;;;5.77;1.80;;;;;;;17.24;68.98;150392.56;4977904;28;20235;-57
2023/09/05 01:10:32;;;;;;;3.73;2.30;;;;;;;17.10;67.08;150360.03;4971190;28;20223;-57
2023/09/05 01:12:59;;;;;;;4.03;2.10;;;;;;;16.98;67.18;150330.03;4968329;28;20238;-56
2023/09/05 01:15:26;;;;;;;4.17;2.00;;;;;;;16.90;69.42;150309.97;4978994;28;20240;-56
2023/09/05 01:17:54;;;;;;;4.00;2.07;;;;;;;16.94;67.76;150319.97;4975208;28;20246;-58
2023/09/05 01:20:21;;;;;;;2.87;1.90;;;;;;;16.90;67.27;150309.97;4973981;28;20232;-58
2023/09/05 01:23:01;;;;;;;3.83;1.70;;;;;;;16.92;67.48;150314.97;4991138;28;20236;-58
2023/09/05 01:25:30;;;;;;;3.23;1.63;;;;;;;16.96;67.08;150324.97;4980640;28;20221;-58
2023/09/05 01:27:58;;;;;;;2.67;2.23;;;;;;;16.93;66.94;150318.75;4994276;28;20234;-58
2023/09/05 01:30:25;;;;;;;3.27;2.13;;;;;;;16.89;68.45;150307.47;4979123;28;20211;-58
2023/09/05 01:32:52;;;;;;;3.90;2.20;;;;;;;16.73;67.35;150269.97;4991003;28;20235;-56
2023/09/05 01:35:18;;;;;;;4.87;1.80;;;;;;;16.72;70.93;150267.47;4981155;28;20591;-56
2023/09/05 01:37:45;;;;;;;2.17;1.60;;;;;;;16.70;71.95;150261.22;4976958;28;20231;-58
2023/09/05 01:40:12;;;;;;;2.63;1.87;;;;;;;16.56;71.30;150228.72;4998275;28;20241;-57
2023/09/05 01:42:40;;;;;;;2.87;2.00;;;;;;;16.73;65.68;150268.75;4994889;28;20593;-57
2023/09/05 01:45:07;;;;;;;2.97;1.67;;;;;;;16.76;65.70;150277.47;4998136;28;20492;-57
2023/09/05 01:47:34;;;;;;;3.20;2.10;;;;;;;16.66;68.61;150252.47;4986335;28;20227;-57
2023/09/05 01:50:00;;;;;;;4.20;1.93;;;;;;;16.65;67.11;150249.97;4983135;28;20245;-58
2023/09/05 01:52:27;;;;;;;2.80;1.90;;;;;;;16.76;66.30;150277.47;5004053;28;20593;-56
2023/09/05 01:54:54;;;;;;;5.23;1.67;;;;;;;16.87;67.72;150302.47;4982718;28;20232;-58
2023/09/05 01:57:20;;;;;;;2.40;1.93;;;;;;;16.71;67.46;150263.72;4987153;28;20229;-58
2023/09/05 01:59:48;;;;;;;3.33;1.70;;;;;;;16.87;71.70;150303.75;4999276;28;20238;-58
2023/09/05 02:02:15;;;;;;;2.77;1.80;;;;;;;16.78;68.17;150282.47;4984902;28;20225;-58
2023/09/05 02:04:41;;;;;;;3.20;1.70;;;;;;;16.74;66.45;150272.47;4982133;28;20228;-57
2023/09/05 02:07:09;;;;;;;2.53;1.73;;;;;;;16.82;65.19;150292.47;4986369;28;20277;-57
2023/09/05 02:09:36;;;;;;;2.53;1.70;;;;;;;16.60;66.19;150238.72;5004675;28;20227;-54
2023/09/05 02:12:03;;;;;;;6.17;1.63;;;;;;;16.58;65.53;150233.72;5002101;28;20690;-55
2023/09/05 02:14:29;;;;;;;3.20;1.97;;;;;;;16.63;64.42;150246.22;4986601;28;20590;-56
2023/09/05 02:16:57;;;;;;;2.20;1.73;;;;;;;16.58;68.01;150233.72;4974934;28;20251;-55
2023/09/05 02:19:26;;;;;;;2.10;1.53;;;;;;;16.45;68.40;150201.22;5002266;28;20439;-55
2023/09/05 02:21:53;;;;;;;2.70;1.70;;;;;;;16.62;66.10;150242.44;5000548;28;20312;-57
2023/09/05 02:24:20;;;;;;;2.70;1.90;;;;;;;16.56;68.26;150227.44;4995275;28;20216;-58
2023/09/05 02:26:47;;;;;;;3.23;1.70;;;;;;;16.45;66.81;150202.44;5001589;28;20263;-58
2023/09/05 02:29:13;;;;;;;2.63;1.73;;;;;;;16.44;68.45;150199.94;5002070;28;20226;-58
2023/09/05 02:31:40;;;;;;;4.67;1.93;;;;;;;16.49;67.12;150212.44;4972669;28;20244;-58
2023/09/05 02:34:09;;;;;;;2.80;1.80;;;;;;;16.49;67.03;150211.22;5004268;28;20299;-58
2023/09/05 02:36:36;;;;;;;2.87;1.83;;;;;;;16.48;66.13;150208.72;5004158;28;20237;-58
2023/09/05 02:39:03;;;;;;;2.53;1.47;;;;;;;16.43;66.17;150197.44;4986964;28;20241;-58
2023/09/05 02:41:34;;;;;;;2.20;1.63;;;;;;;16.28;66.79;150161.22;4989884;28;20229;-58
2023/09/05 02:44:01;;;;;;;2.47;1.80;;;;;;;16.20;66.88;150141.22;4977363;28;20242;-57
2023/09/05 02:46:28;;;;;;;2.77;1.57;;;;;;;16.37;69.48;150183.72;4990391;28;20215;-58
2023/09/05 02:48:54;;;;;;;2.07;1.70;;;;;;;16.23;68.66;150150.00;4988755;28;20225;-57
2023/09/05 02:51:22;;;;;;;4.43;1.70;;;;;;;16.37;66.80;150183.72;5006102;28;20580;-57
2023/09/05 02:53:49;;;;;;;2.40;1.60;;;;;;;16.58;65.23;150232.44;5003659;28;20224;-56
2023/09/05 02:56:17;;;;;;;3.60;1.60;;;;;;;16.35;65.32;150178.72;5006110;28;20344;-56
2023/09/05 02:58:45;;;;;;;3.20;1.77;;;;;;;16.35;66.42;150178.72;4977835;28;20227;-57
2023/09/05 03:01:11;;;;;;;3.13;1.67;;;;;;;16.34;73.09;150175.00;4990941;28;20241;-57
2023/09/05 03:03:38;;;;;;;3.43;1.60;;;;;;;16.20;69.67;150142.50;4989102;28;20230;-58
2023/09/05 03:06:09;;;;;;;2.27;1.47;;;;;;;16.33;66.16;150172.50;5005395;28;20553;-57
2023/09/05 03:08:38;;;;;;;5.93;1.60;;;;;;;16.76;69.36;150277.47;4990005;28;20226;-58
2023/09/05 03:11:06;;;;;;;4.00;1.70;;;;;;;16.57;67.03;150229.94;4976513;28;20243;-54
2023/09/05 03:13:33;;;;;;;2.10;1.50;;;;;;;16.50;65.74;150214.94;5007460;28;20312;-57
2023/09/05 03:15:59;;;;;;;2.77;1.67;;;;;;;16.58;64.21;150233.72;4987159;28;20629;-57
2023/09/05 03:18:26;;;;;;;6.03;1.73;;;;;;;16.50;66.29;150213.72;5006987;28;20325;-56
2023/09/05 03:20:53;;;;;;;3.03;1.77;;;;;;;16.58;64.44;150232.44;4976882;28;20243;-56
2023/09/05 03:23:20;;;;;;;1.63;1.17;;;;;;;16.43;65.19;150196.22;4988378;28;20700;-56
2023/09/05 03:25:48;;;;;;;2.40;1.70;;;;;;;16.45;63.87;150202.44;5001382;28;20234;-57
2023/09/05 03:28:15;;;;;;;3.57;1.50;;;;;;;16.29;66.50;150163.72;4988279;28;20233;-57
2023/09/05 03:30:44;;;;;;;4.97;1.67;;;;;;;16.18;68.57;150136.22;5193813;22;21232;-57
2023/09/05 03:33:11;;;;;;;4.80;1.60;;;;;;;16.23;71.58;150150.00;5001907;28;20237;-57
2023/09/05 03:35:38;;;;;;;3.17;1.67;;;;;;;16.16;69.44;150131.22;5001007;28;20209;-56
2023/09/05 03:38:06;;;;;;;2.97;1.90;;;;;;;16.08;70.29;150113.72;5005667;28;20244;-56
2023/09/05 03:40:33;;;;;;;4.83;1.70;;;;;;;16.08;72.11;150112.50;4987995;28;20760;-57
2023/09/05 03:43:01;;;;;;;3.23;1.40;;;;;;;15.99;69.57;150091.22;4990098;28;20252;-56
2023/09/05 03:45:28;;;;;;;3.50;1.60;;;;;;;16.11;67.97;150120.00;4989481;28;20219;-55
2023/09/05 03:47:53;;;;;;;1.83;1.50;;;;;;;16.02;67.82;150098.72;4984972;28;20245;-57
2023/09/05 03:50:21;;;;;;;2.53;1.20;;;;;;;15.89;70.27;150067.50;4993379;28;20304;-57
2023/09/05 03:52:47;;;;;;;4.13;1.50;;;;;;;15.91;71.97;150071.22;4984782;28;20240;-56
2023/09/05 03:55:14;;;;;;;3.53;1.57;;;;;;;15.83;70.66;150051.22;4986659;28;20248;-57
2023/09/05 03:57:41;;;;;;;3.10;1.50;;;;;;;15.75;72.74;150032.47;4987654;28;20231;-57
2023/09/05 04:00:10;;;;;;;3.73;1.90;;;;;;;15.77;73.81;150038.72;4990158;28;20310;-56
2023/09/05 04:02:40;;;;;;;3.43;1.50;;;;;;;15.58;74.38;149992.47;4986474;28;20802;-58
2023/09/05 04:05:07;;;;;;;4.07;1.70;;;;;;;15.46;74.53;149963.75;4990455;28;20262;-56
2023/09/05 04:07:34;;;;;;;2.30;1.67;;;;;;;15.36;75.83;149938.78;4991366;28;20225;-57
2023/09/05 04:10:01;;;;;;;2.93;1.70;;;;;;;15.25;78.44;149911.28;4989433;28;20587;-57
2023/09/05 04:12:27;;;;;;;4.90;1.97;;;;;;;15.12;78.74;149880.06;4986148;28;20224;-56
2023/09/05 04:14:54;;;;;;;4.80;2.40;;;;;;;15.05;80.45;149863.81;4986509;28;20431;-57
2023/09/05 04:17:22;;;;;;;4.37;2.13;;;;;;;14.95;82.32;149838.81;4991192;28;20463;-55
2023/09/05 04:19:52;;;;;;;5.80;1.80;;;;;;;14.74;85.02;149788.91;4980813;28;20217;-57
2023/09/05 04:22:20;;;;;;;3.53;2.00;;;;;;;14.67;84.38;149771.38;4978044;28;20231;-57
2023/09/05 04:24:46;;;;;;;2.17;1.50;;;;;;;14.69;85.04;149777.66;4984722;28;20229;-57
2023/09/05 04:27:13;;;;;;;4.80;1.73;;;;;;;14.51;87.80;149733.94;4992662;28;20243;-57
2023/09/05 04:29:40;;;;;;;2.23;1.60;;;;;;;14.46;87.11;149722.66;4985377;28;20248;-56
2023/09/05 04:32:06;;;;;;;2.47;1.50;;;;;;;14.59;87.88;149752.63;4991322;28;20238;-57
2023/09/05 04:34:34;;;;;;;2.30;1.43;;;;;;;14.54;88.80;149740.16;4983520;28;20306;-53
2023/09/05 04:37:01;;;;;;;2.87;1.27;;;;;;;14.56;85.57;149746.41;4984704;28;20236;-57
2023/09/05 04:39:28;;;;;;;2.93;2.10;;;;;;;14.67;87.57;149772.63;5002548;28;20220;-57
2023/09/05 04:41:54;;;;;;;3.00;1.77;;;;;;;14.59;88.00;149752.63;4989792;28;20229;-57
2023/09/05 04:44:21;;;;;;;2.50;1.80;;;;;;;14.63;86.66;149761.41;4986736;28;20273;-57
2023/09/05 04:46:48;;;;;;;3.57;1.80;;;;;;;14.74;86.23;149790.16;4982434;28;20232;-57
2023/09/05 04:49:14;;;;;;;3.67;1.60;;;;;;;14.69;85.62;149777.66;4987982;28;20247;-56
2023/09/05 04:51:42;;;;;;;2.37;1.90;;;;;;;14.74;84.59;149790.16;4984099;28;20231;-58
2023/09/05 04:54:09;;;;;;;5.73;2.00;;;;;;;14.70;88.10;149780.16;4992924;28;20238;-57
2023/09/05 04:56:35;;;;;;;4.20;2.77;;;;;;;14.61;88.28;149758.91;4986191;28;20221;-57
2023/09/05 04:59:02;;;;;;;2.53;1.90;;;;;;;14.59;87.76;149752.63;4987491;28;20233;-55
2023/09/05 05:01:34;;;;;;;4.87;1.87;;;;;;;14.57;87.77;149748.91;4991654;28;20242;-57
2023/09/05 05:04:01;;;;;;;4.43;2.00;;;;;;;14.58;89.08;149750.13;4987695;28;20235;-58
2023/09/05 05:06:28;;;;;;;2.93;2.30;;;;;;;14.58;89.46;149750.13;4989742;28;20306;-56
2023/09/05 05:08:56;;;;;;;2.73;2.10;;;;;;;14.54;90.96;149740.16;4987178;28;20224;-58
2023/09/05 05:11:23;;;;;;;4.50;1.63;;;;;;;14.52;89.27;149736.41;4979553;28;20227;-56
2023/09/05 05:13:50;;;;;;;2.77;2.10;;;;;;;14.62;91.00;149760.13;4978269;28;20703;-57
2023/09/05 05:16:16;;;;;;;2.60;1.90;;;;;;;14.60;89.65;149755.13;4990075;28;20714;-56
2023/09/05 05:18:43;;;;;;;4.33;2.57;;;;;;;14.57;90.82;149747.63;4978214;28;20609;-54
2023/09/05 05:21:09;;;;;;;3.20;1.70;;;;;;;14.56;90.57;149745.13;4996194;28;20255;-57
2023/09/05 05:23:36;;;;;;;3.90;1.77;;;;;;;14.53;90.79;149737.66;4993948;28;20703;-56
2023/09/05 05:26:04;;;;;;;5.70;2.20;;;;;;;14.53;91.19;149737.66;4989029;28;20571;-57
2023/09/05 05:28:30;;;;;;;4.17;1.90;;;;;;;14.57;91.77;149748.91;4987700;28;20492;-56
2023/09/05 05:30:57;;;;;;;4.33;2.80;;;;;;;14.56;92.48;149746.41;4983512;28;20262;-57
2023/09/05 05:33:23;;;;;;;4.00;2.73;;;;;;;14.50;95.01;149730.16;4980493;28;20224;-56
2023/09/05 05:35:53;;;;;;;5.87;2.97;;;;;;;14.45;94.90;149720.16;4983616;28;20230;-56
2023/09/05 05:38:20;;;;;;;7.07;3.37;;;;;;;14.60;94.94;149755.13;4984053;28;20300;-56
2023/09/05 05:40:46;;;;;;;5.97;4.23;;;;;;;14.55;95.19;149742.63;4987514;28;20234;-57
2023/09/05 05:43:14;;;;;;;6.67;4.47;;;;;;;14.57;97.35;149747.63;4989254;28;20224;-57
2023/09/05 05:45:41;;;;;;;6.03;4.97;;;;;;;14.63;98.58;149762.63;4985093;28;20241;-56
2023/09/05 05:48:09;;;;;;;6.17;4.53;;;;;;;14.52;99.60;149736.41;4987111;28;20227;-57
2023/09/05 05:50:36;;;;;;;6.90;4.27;;;;;;;14.51;100.00;149733.94;4980342;28;20220;-56
2023/09/05 05:53:02;;;;;;;7.43;5.27;;;;;;;14.51;100.00;149732.66;4971939;28;20230;-57
2023/09/05 05:55:29;;;;;;;8.13;4.90;;;;;;;14.49;100.00;149728.94;4987383;28;20216;-57
2023/09/05 05:57:56;;;;;;;6.77;4.50;;;;;;;14.50;100.00;149731.44;4989019;28;20219;-57
2023/09/05 06:00:25;;;;;;;6.50;4.10;;;;;;;14.47;100.00;149725.16;4984469;28;20232;-57
2023/09/05 06:02:51;;;;;;;7.07;5.43;;;;;;;14.46;100.00;149721.44;4979586;28;21120;-57
2023/09/05 06:05:18;;;;;;;7.20;4.47;;;;;;;14.45;100.00;149718.94;4986107;28;20251;-57
2023/09/05 06:07:45;;;;;;;5.90;4.27;;;;;;;14.41;100.00;149710.19;4986496;28;20224;-58
2023/09/05 06:10:12;;;;;;;6.20;3.97;;;;;;;14.45;100.00;149718.94;4988644;28;20228;-57
2023/09/05 06:12:38;;;;;;;4.83;3.93;;;;;;;14.47;100.00;149725.16;4969391;28;20217;-56
2023/09/05 06:15:06;;;;;;;4.37;3.50;;;;;;;14.43;100.00;149713.94;4981926;28;20240;-56
2023/09/05 06:17:34;;;;;;;5.40;3.37;;;;;;;14.46;100.00;149721.44;4989928;28;20227;-57
2023/09/05 06:20:01;;;;;;;5.67;3.60;;;;;;;14.49;100.00;149728.94;4987741;28;20221;-56
2023/09/05 06:22:27;;;;;;;5.47;3.20;;;;;;;14.48;100.00;149726.44;4991306;28;20234;-57
2023/09/05 06:24:54;;;;;;;4.17;3.03;;;;;;;14.54;100.00;149741.41;4983792;28;20695;-57
2023/09/05 06:27:21;;;;;;;4.23;2.70;;;;;;;14.57;100.00;149748.91;4985220;28;20224;-56
2023/09/05 06:29:48;;;;;;;4.03;2.70;;;;;;;14.69;99.44;149776.38;4975406;28;20236;-56
2023/09/05 06:32:14;;;;;;;3.43;2.60;;;;;;;14.80;100.00;149802.63;4950083;28;1088661;-57
2023/09/05 06:34:42;;;;;;;4.17;3.40;;;;;;;14.82;100.00;149807.63;4980625;28;20226;-56
2023/09/05 06:37:10;;;;;;;4.13;2.87;;;;;;;14.87;100.00;149820.13;4988866;28;20234;-58
2023/09/05 06:39:36;;;;;;;3.00;2.50;;;;;;;14.96;96.54;149842.59;4989166;28;20692;-57
2023/09/05 06:42:04;;;;;;;3.07;2.50;;;;;;;15.08;96.20;149871.31;4985709;28;20226;-58
2023/09/05 06:44:37;;;;;;;5.97;2.40;;;;;;;15.12;96.19;149881.31;4985409;28;20229;-57
2023/09/05 06:47:04;;;;;;;4.50;2.67;;;;;;;15.22;96.19;149905.06;4988666;28;20235;-57
2023/09/05 06:49:31;;;;;;;7.37;3.80;;;;;;;15.32;95.53;149928.78;4980933;28;20744;-57
2023/09/05 06:52:00;;;;;;;5.77;2.97;;;;;;;15.43;95.37;149954.97;4984794;28;20247;-57
2023/09/05 06:54:26;;;;;;;3.83;2.70;;;;;;;15.49;94.46;149971.25;4986364;28;20267;-56
2023/09/05 06:56:53;;;;;;;3.73;2.50;;;;;;;15.54;95.85;149981.25;4980527;28;20236;-57
2023/09/05 06:59:19;;;;;;;3.63;2.60;;;;;;;15.61;94.86;149998.75;4986414;28;20716;-57
2023/09/05 07:01:46;;;;;;;3.67;2.40;;;;;;;15.67;92.80;150012.47;4984387;28;20221;-58
2023/09/05 07:04:14;;;;;;;4.23;2.63;;;;;;;15.68;94.90;150016.22;4986419;28;20221;-57
2023/09/05 07:06:40;;;;;;;3.07;2.50;;;;;;;15.83;93.82;150051.22;4982806;28;20249;-58
2023/09/05 07:09:08;;;;;;;3.43;2.60;;;;;;;16.00;92.73;150093.72;4979693;28;20241;-57
2023/09/05 07:11:35;;;;;;;3.93;2.20;;;;;;;16.17;89.32;150133.72;4985689;28;20239;-57
2023/09/05 07:14:02;;;;;;;3.40;2.23;;;;;;;16.38;87.74;150185.00;4970935;28;20229;-57
2023/09/05 07:16:31;;;;;;;3.70;2.23;;;;;;;16.57;87.18;150231.22;4982137;28;20836;-58
2023/09/05 07:18:58;;;;;;;3.47;2.20;;;;;;;16.74;84.80;150271.22;4984878;28;20228;-57
2023/09/05 07:21:25;;;;;;;3.50;2.37;;;;;;;16.92;83.67;150316.25;4982975;28;20223;-58
2023/09/05 07:23:51;;;;;;;6.33;2.40;;;;;;;17.16;77.63;150373.78;4981322;28;20226;-56
2023/09/05 07:26:19;;;;;;;2.93;2.47;;;;;;;17.30;80.51;150406.31;4989114;28;20243;-56
2023/09/05 07:28:47;;;;;;;4.57;2.20;;;;;;;17.42;81.34;150436.31;4985629;28;20221;-57
2023/09/05 07:31:14;;;;;;;5.73;2.40;;;;;;;17.56;81.84;150471.34;4981640;28;20247;-57
2023/09/05 07:33:41;;;;;;;3.80;2.60;;;;;;;17.69;80.56;150501.38;4986706;28;20310;-58
2023/09/05 07:36:07;;;;;;;3.43;2.17;;;;;;;17.89;78.94;150550.16;4992990;28;20554;-57
2023/09/05 07:38:34;;;;;;;3.00;2.20;;;;;;;18.03;76.35;150583.94;4986393;28;20255;-57
2023/09/05 07:41:02;;;;;;;5.10;2.37;;;;;;;18.13;77.55;150607.75;4990392;28;20237;-57
2023/09/05 07:43:30;;;;;;;3.50;2.80;;;;;;;18.25;77.56;150636.50;4984398;28;20259;-58
2023/09/05 07:45:56;;;;;;;6.83;2.90;;;;;;;18.38;79.58;150669.06;4982966;28;20305;-57
2023/09/05 07:48:23;;;;;;;3.07;2.50;;;;;;;18.47;80.18;150690.34;4988154;28;20235;-57
2023/09/05 07:50:51;;;;;;;3.60;2.10;;;;;;;18.50;74.79;150696.59;4983459;28;20289;-58
2023/09/05 07:53:18;;;;;;;3.17;2.00;;;;;;;18.64;70.41;150731.63;4984235;28;20236;-57
2023/09/05 07:55:44;;;;;;;2.00;1.80;;;;;;;18.75;73.27;150757.91;4985162;28;20250;-58
2023/09/05 07:58:12;;;;;;;4.10;2.17;;;;;;;18.82;75.32;150774.19;4983623;28;20598;-57
2023/09/05 08:00:42;;;;;;;2.63;1.90;;;;;;;18.88;72.85;150789.22;4985283;28;20822;-58
2023/09/05 08:03:09;;;;;;;3.53;2.13;;;;;;;18.99;73.05;150815.53;4993308;28;20234;-57
2023/09/05 08:05:36;;;;;;;3.50;2.10;;;;;;;19.08;74.06;150838.06;4987661;28;20229;-57
2023/09/05 08:08:02;;;;;;;3.43;2.80;;;;;;;19.18;74.96;150863.13;4982291;28;20227;-58
2023/09/05 08:10:29;;;;;;;3.83;2.23;;;;;;;19.19;72.73;150864.34;4983527;28;20711;-58
2023/09/05 08:12:56;;;;;;;8.33;3.37;;;;;;;19.31;74.72;150894.41;4982223;28;20232;-57
2023/09/05 08:15:22;;;;;;;3.90;3.40;;;;;;;19.42;77.09;150919.44;4992055;28;20240;-58
2023/09/05 08:17:50;;;;;;;7.17;4.20;;;;;;;19.51;77.91;150940.75;4981668;28;20557;-57
2023/09/05 08:20:17;;;;;;;6.73;3.63;;;;;;;19.56;78.74;150954.50;4989454;28;20236;-58
2023/09/05 08:22:44;;;;;;;4.73;3.20;;;;;;;19.68;80.56;150983.28;4979306;28;20258;-57
2023/09/05 08:25:15;;;;;;;5.40;3.23;;;;;;;19.75;78.94;150999.59;4984183;28;20737;-58
2023/09/05 08:27:41;;;;;;;3.33;2.53;;;;;;;19.82;77.61;151017.13;4983432;28;20235;-58
2023/09/05 08:30:11;;;;;;;2.50;2.07;;;;;;;19.85;72.61;151024.66;4986784;28;20622;-58
2023/09/05 08:32:38;;;;;;;6.23;4.20;;;;;;;19.94;75.69;151045.97;4980745;28;20234;-58
2023/09/05 08:35:09;;;;;;;6.07;4.20;;;;;;;20.03;77.06;151068.53;4986202;28;21007;-57
2023/09/05 08:37:36;;;;;;;7.10;4.10;;;;;;;20.19;75.00;151106.09;4988544;28;20219;-57
2023/09/05 08:40:03;;;;;;;8.00;4.20;;;;;;;20.28;76.01;151127.38;4980421;28;20230;-57
2023/09/05 08:42:31;;;;;;;8.33;4.40;;;;;;;20.35;76.67;151146.19;4981089;28;20594;-58
2023/09/05 08:44:59;;;;;;;8.33;4.50;;;;;;;20.40;75.99;151156.22;4984166;28;20243;-58
2023/09/05 08:47:29;;;;;;;8.03;4.73;;;;;;;20.41;73.85;151159.97;4985275;28;20213;-57
2023/09/05 08:49:58;;;;;;;9.57;4.93;;;;;;;20.40;74.54;151156.22;4984454;28;20231;-57
2023/09/05 08:52:31;;;;;;;6.13;4.57;;;;;;;20.43;73.81;151164.97;4986604;28;20312;-58
2023/09/05 08:54:58;;;;;;;6.57;4.47;;;;;;;20.53;74.29;151187.53;4984887;28;20287;-58
2023/09/05 08:57:26;;;;;;;8.57;4.77;;;;;;;20.59;74.30;151202.56;4979885;28;20227;-58
2023/09/05 08:59:54;;;;;;;6.20;4.57;;;;;;;20.70;73.87;151230.13;4986837;28;20240;-58
2023/09/05 09:02:21;;;;;;;5.00;4.07;;;;;;;20.76;71.66;151243.91;4990696;28;20637;-58
2023/09/05 09:04:51;;;;;;;8.27;4.40;;;;;;;20.85;72.21;151265.28;4977747;28;20219;-58
2023/09/05 09:07:18;;;;;;;6.30;4.17;;;;;;;20.96;72.76;151292.84;4988882;28;20317;-58
2023/09/05 09:09:46;;;;;;;7.47;4.23;;;;;;;21.06;72.10;151317.94;4981970;28;20235;-57
2023/09/05 09:12:12;;;;;;;6.33;4.37;;;;;;;21.09;71.61;151325.44;4988252;28;20251;-58
2023/09/05 09:14:39;;;;;;;5.53;4.10;;;;;;;21.20;67.48;151351.75;4984490;28;20227;-57
2023/09/05 09:17:06;;;;;;;9.27;4.70;;;;;;;21.31;65.84;151378.03;4984905;28;20232;-58
2023/09/05 09:19:33;;;;;;;5.07;4.03;;;;;;;21.40;63.74;151399.38;4989981;28;20312;-57
2023/09/05 09:22:02;;;;;;;5.70;3.73;;;;;;;21.50;65.50;151423.19;4988489;28;20736;-57
2023/09/05 09:24:33;;;;;;;5.73;4.10;;;;;;;21.49;64.78;151420.66;4984523;28;20270;-57
2023/09/05 09:27:03;;;;;;;7.07;4.27;;;;;;;21.51;63.95;151426.97;4979885;28;20282;-58
2023/09/05 09:29:30;;;;;;;5.27;3.57;;;;;;;21.48;64.44;151418.16;4986989;28;20217;-57
2023/09/05 09:32:03;;;;;;;6.70;3.50;;;;;;;21.49;64.29;151421.94;4980481;28;20255;-58
2023/09/05 09:34:30;;;;;;;4.97;3.00;;;;;;;21.47;64.86;151415.66;4983605;28;20227;-58
2023/09/05 09:36:57;;;;;;;4.43;2.87;;;;;;;21.61;62.76;151450.75;4985211;28;20232;-58
2023/09/05 09:39:25;;;;;;;7.70;3.23;;;;;;;21.60;63.28;151448.25;4986826;28;20239;-57
2023/09/05 09:41:51;;;;;;;6.00;3.17;;;;;;;21.70;64.55;151472.16;4979294;28;20239;-58
2023/09/05 09:44:28;;;;;;;5.87;3.10;;;;;;;21.82;64.88;151500.97;4999499;28;20234;-57
2023/09/05 09:46:56;;;;;;;3.73;2.60;;;;;;;21.83;62.67;151504.72;4982584;28;20684;-57
2023/09/05 09:49:24;;;;;;;3.53;2.60;;;;;;;21.80;63.73;151495.97;4986243;28;20230;-58
2023/09/05 09:51:54;;;;;;;5.10;2.50;;;;;;;21.93;61.93;151527.28;4984110;28;20784;-58
2023/09/05 09:54:29;;;;;;;7.83;2.47;;;;;;;21.97;61.12;151537.31;4982339;28;20314;-58
2023/09/05 09:56:58;;;;;;;3.63;2.47;;;;;;;22.09;62.05;151566.19;4980190;28;20235;-58
2023/09/05 09:59:33;;;;;;;8.50;2.40;;;;;;;22.02;62.46;151548.63;4986433;28;20226;-58
2023/09/05 10:02:00;;;;;;;5.17;2.70;;;;;;;22.03;63.80;151552.38;4976733;28;20243;-57
2023/09/05 10:04:28;;;;;;;6.33;2.97;;;;;;;22.12;64.61;151574.94;4981016;28;20222;-57
2023/09/05 10:06:56;;;;;;;7.57;2.77;;;;;;;22.16;63.76;151583.75;4988602;28;20227;-58
2023/09/05 10:09:24;;;;;;;4.13;2.43;;;;;;;22.26;62.06;151608.78;4989756;28;20227;-57
2023/09/05 10:11:52;;;;;;;5.50;2.40;;;;;;;22.37;59.81;151633.88;4979317;28;20226;-56
2023/09/05 10:14:19;;;;;;;3.47;2.27;;;;;;;22.48;58.48;151660.28;4992228;28;20225;-58
2023/09/05 10:16:49;;;;;;;3.73;2.50;;;;;;;22.54;59.95;151675.34;4978191;28;20219;-58
2023/09/05 10:19:17;;;;;;;5.13;2.37;;;;;;;22.67;58.95;151706.66;4985312;28;20247;-57
2023/09/05 10:21:47;;;;;;;5.23;2.70;;;;;;;22.76;61.52;151729.25;4982648;28;20228;-58
2023/09/05 10:24:15;;;;;;;4.67;2.57;;;;;;;22.77;60.99;151730.53;4983913;28;20235;-56
2023/09/05 10:26:42;;;;;;;5.43;2.77;;;;;;;22.82;60.34;151743.03;4982627;28;20226;-56
2023/09/05 10:29:31;;;;;;;4.93;2.40;;;;;;;22.94;61.45;151773.16;4987709;28;20228;-58
2023/09/05 10:31:59;;;;;;;4.73;2.60;;;;;;;22.95;61.58;151774.44;4987306;28;20244;-57
2023/09/05 10:34:54;;;;;;;3.60;2.33;;;;;;;23.07;62.34;151804.53;4988415;28;20222;-57
2023/09/05 10:37:23;;;;;;;3.63;2.63;;;;;;;23.09;62.86;151809.56;4985699;28;20231;-57
2023/09/05 10:39:51;;;;;;;5.03;2.70;;;;;;;23.13;61.82;151818.31;4969773;28;20241;-58
2023/09/05 10:42:18;;;;;;;3.80;3.17;;;;;;;23.24;61.62;151844.75;4984928;28;20265;-56
2023/09/05 10:44:47;;;;;;;7.03;2.80;;;;;;;23.30;62.43;151859.81;4986493;28;20684;-56
2023/09/05 10:47:27;;;;;;;3.90;2.70;;;;;;;23.44;61.36;151894.91;4994324;28;20272;-57
2023/09/05 10:50:00;;;;;;;4.90;3.00;;;;;;;23.52;62.17;151913.75;4976018;28;20703;-58
2023/09/05 10:52:29;;;;;;;5.43;3.10;;;;;;;23.59;62.02;151930.03;4981239;28;20317;-58
2023/09/05 10:54:56;;;;;;;4.93;2.67;;;;;;;23.71;62.79;151958.94;4984257;28;20723;-58
2023/09/05 10:57:37;;;;;;;6.27;2.80;;;;;;;23.84;61.75;151991.56;4982365;28;20232;-58
2023/09/05 11:00:14;;;;;;;4.23;2.80;;;;;;;23.73;61.01;151965.19;4984841;28;20246;-58
2023/09/05 11:02:41;;;;;;;7.50;3.00;;;;;;;23.92;61.50;152009.09;4983385;28;20301;-58
2023/09/05 11:05:11;;;;;;;5.20;2.67;;;;;;;24.12;60.34;152058.13;4990740;28;20239;-58
2023/09/05 11:07:43;;;;;;;7.27;2.97;;;;;;;24.10;61.56;152053.13;4986844;28;20222;-58
2023/09/05 11:10:11;;;;;;;5.60;2.67;;;;;;;24.15;62.23;152066.91;4989278;28;20299;-58
2023/09/05 11:12:38;;;;;;;6.47;2.70;;;;;;;24.24;62.27;152087.00;4982002;28;20226;-58
2023/09/05 11:15:08;;;;;;;6.17;3.07;;;;;;;24.47;61.78;152143.47;4987969;28;20232;-57
2023/09/05 11:17:36;;;;;;;6.30;2.90;;;;;;;24.46;60.68;152142.22;4988481;28;20285;-57
2023/09/05 11:20:06;;;;;;;7.43;2.73;;;;;;;24.49;61.20;152148.50;4988327;28;20330;-58
2023/09/05 11:22:33;;;;;;;6.50;2.40;;;;;;;24.68;59.79;152193.69;4982709;28;20220;-56
2023/09/05 11:25:03;;;;;;;4.87;2.57;;;;;;;24.87;58.44;152241.47;4980208;28;20254;-56
2023/09/05 11:27:32;;;;;;;6.30;2.67;;;;;;;25.03;57.87;152280.38;4986251;28;20689;-58